createdAt,value
2016-11-27T00:00:32.225Z,0
2016-11-27T00:01:11.081Z,0
2016-11-27T00:01:49.908Z,0
2016-11-27T00:02:28.726Z,0
2016-11-27T00:03:07.554Z,0
2016-11-27T00:03:46.373Z,0
2016-11-27T00:04:25.216Z,0
2016-11-27T00:05:04.040Z,0
2016-11-27T00:05:42.867Z,0
2016-11-27T00:06:21.692Z,0
2016-11-27T00:07:00.513Z,0
2016-11-27T00:07:39.341Z,0
2016-11-27T00:08:18.164Z,0
2016-11-27T00:08:56.989Z,0
2016-11-27T00:09:35.811Z,0
2016-11-27T00:10:14.632Z,0
2016-11-27T00:10:53.454Z,0
2016-11-27T00:11:32.271Z,0
2016-11-27T00:12:11.095Z,0
2016-11-27T00:12:49.918Z,0
2016-11-27T00:13:28.746Z,0
2016-11-27T00:14:07.574Z,0
2016-11-27T00:14:46.393Z,0
2016-11-27T00:15:25.223Z,0
2016-11-27T00:16:04.047Z,0
2016-11-27T00:16:42.869Z,0
2016-11-27T00:17:21.690Z,0
2016-11-27T00:18:00.522Z,0
2016-11-27T00:18:39.347Z,0
2016-11-27T00:19:18.169Z,0
2016-11-27T00:19:56.988Z,0
2016-11-27T00:20:35.816Z,0
2016-11-27T00:21:14.637Z,0
2016-11-27T00:21:53.461Z,0
2016-11-27T00:22:32.290Z,0
2016-11-27T00:23:11.120Z,0
2016-11-27T00:23:49.942Z,0
2016-11-27T00:24:28.761Z,0
2016-11-27T00:25:07.937Z,0
2016-11-27T00:25:46.760Z,0
2016-11-27T00:26:25.580Z,0
2016-11-27T00:27:04.399Z,0
2016-11-27T00:27:43.223Z,0
2016-11-27T00:28:22.044Z,0
2016-11-27T00:29:00.865Z,0
2016-11-27T00:29:39.692Z,0
2016-11-27T00:30:18.512Z,0
2016-11-27T00:30:57.339Z,0
2016-11-27T00:31:36.160Z,0
2016-11-27T00:32:14.986Z,0
2016-11-27T00:32:53.815Z,0
2016-11-27T00:33:32.635Z,0
2016-11-27T00:34:11.456Z,0
2016-11-27T00:34:50.271Z,0
2016-11-27T00:35:29.093Z,0
2016-11-27T00:36:07.918Z,0
2016-11-27T00:36:46.740Z,0
2016-11-27T00:37:25.565Z,0
2016-11-27T00:38:04.389Z,0
2016-11-27T00:38:43.213Z,0
2016-11-27T00:39:22.033Z,0
2016-11-27T00:40:00.853Z,0
2016-11-27T00:40:39.681Z,0
2016-11-27T00:41:18.862Z,0
2016-11-27T00:41:57.694Z,0
2016-11-27T00:42:36.518Z,0
2016-11-27T00:43:15.371Z,0
2016-11-27T00:43:54.191Z,0
2016-11-27T00:44:33.011Z,0
2016-11-27T00:45:11.838Z,0
2016-11-27T00:45:50.660Z,0
2016-11-27T00:46:29.486Z,0
2016-11-27T00:47:08.319Z,0
2016-11-27T00:47:47.146Z,0
2016-11-27T00:48:25.979Z,0
2016-11-27T00:49:04.802Z,0
2016-11-27T00:49:43.627Z,0
2016-11-27T00:50:22.452Z,0
2016-11-27T00:51:01.278Z,0
2016-11-27T00:51:40.103Z,0
2016-11-27T00:52:18.936Z,0
2016-11-27T00:52:57.759Z,0
2016-11-27T00:53:36.583Z,0
2016-11-27T00:54:15.406Z,0
2016-11-27T00:54:54.234Z,0
2016-11-27T00:55:33.058Z,0
2016-11-27T00:56:11.881Z,0
2016-11-27T00:56:50.697Z,0
2016-11-27T00:57:29.527Z,0
2016-11-27T00:58:08.353Z,0
2016-11-27T00:58:47.176Z,0
2016-11-27T00:59:26.000Z,0
2016-11-27T01:00:04.820Z,0
2016-11-27T01:00:43.642Z,0
2016-11-27T01:01:22.464Z,0
2016-11-27T01:02:01.283Z,0
2016-11-27T01:02:40.119Z,0
2016-11-27T01:03:18.940Z,0
2016-11-27T01:03:57.764Z,0
2016-11-27T01:04:36.589Z,0
2016-11-27T01:05:15.441Z,0
2016-11-27T01:05:54.264Z,0
2016-11-27T01:06:33.086Z,0
2016-11-27T01:07:11.909Z,0
2016-11-27T01:07:50.728Z,0
2016-11-27T01:08:29.547Z,0
2016-11-27T01:09:08.380Z,0
2016-11-27T01:09:47.205Z,0
2016-11-27T01:10:26.030Z,0
2016-11-27T01:11:04.852Z,0
2016-11-27T01:11:43.677Z,0
2016-11-27T01:12:22.530Z,0
2016-11-27T01:13:01.351Z,0
2016-11-27T01:13:40.168Z,0
2016-11-27T01:14:18.996Z,0
2016-11-27T01:14:57.845Z,0
2016-11-27T01:15:36.670Z,0
2016-11-27T01:16:15.492Z,0
2016-11-27T01:16:54.315Z,0
2016-11-27T01:17:33.137Z,0
2016-11-27T01:18:11.960Z,0
2016-11-27T01:18:50.780Z,0
2016-11-27T01:19:29.606Z,0
2016-11-27T01:20:08.436Z,0
2016-11-27T01:20:47.259Z,0
2016-11-27T01:21:26.080Z,0
2016-11-27T01:22:04.902Z,0
2016-11-27T01:22:43.727Z,0
2016-11-27T01:23:22.553Z,0
2016-11-27T01:24:01.377Z,0
2016-11-27T01:24:40.201Z,0
2016-11-27T01:25:19.023Z,0
2016-11-27T01:25:57.850Z,0
2016-11-27T01:26:36.687Z,0
2016-11-27T01:27:15.509Z,0
2016-11-27T01:27:54.330Z,0
2016-11-27T01:28:33.188Z,0
2016-11-27T01:29:12.016Z,0
2016-11-27T01:29:50.839Z,0
2016-11-27T01:30:29.660Z,0
2016-11-27T01:31:08.485Z,0
2016-11-27T01:31:47.303Z,0
2016-11-27T01:32:26.148Z,0
2016-11-27T01:33:04.972Z,0
2016-11-27T01:33:44.142Z,0
2016-11-27T01:34:22.965Z,0
2016-11-27T01:35:01.786Z,0
2016-11-27T01:35:40.610Z,0
2016-11-27T01:36:19.440Z,0
2016-11-27T01:36:58.269Z,0
2016-11-27T01:37:37.092Z,0
2016-11-27T01:38:15.918Z,0
2016-11-27T01:38:54.738Z,0
2016-11-27T01:39:33.564Z,0
2016-11-27T01:40:12.393Z,0
2016-11-27T01:40:51.247Z,0
2016-11-27T01:41:30.066Z,0
2016-11-27T01:42:08.899Z,0
2016-11-27T01:42:47.729Z,0
2016-11-27T01:43:26.559Z,0
2016-11-27T01:44:05.383Z,0
2016-11-27T01:44:44.206Z,0
2016-11-27T01:45:23.039Z,0
2016-11-27T01:46:02.218Z,0
2016-11-27T01:46:41.042Z,0
2016-11-27T01:47:19.865Z,0
2016-11-27T01:47:58.692Z,0
2016-11-27T01:48:37.511Z,0
2016-11-27T01:49:16.333Z,0
2016-11-27T01:49:55.160Z,0
2016-11-27T01:50:33.979Z,0
2016-11-27T01:51:12.802Z,0
2016-11-27T01:51:51.627Z,0
2016-11-27T01:52:30.447Z,0
2016-11-27T01:53:09.270Z,0
2016-11-27T01:53:48.093Z,0
2016-11-27T01:54:26.916Z,0
2016-11-27T01:55:05.747Z,0
2016-11-27T01:55:44.575Z,0
2016-11-27T01:56:23.410Z,0
2016-11-27T01:57:02.235Z,0
2016-11-27T01:57:41.066Z,0
2016-11-27T01:58:19.894Z,0
2016-11-27T01:58:58.750Z,0
2016-11-27T01:59:37.572Z,0
2016-11-27T02:00:16.398Z,0
2016-11-27T02:00:55.227Z,0
2016-11-27T02:01:34.049Z,0
2016-11-27T02:02:12.874Z,0
2016-11-27T02:02:51.691Z,0
2016-11-27T02:03:30.513Z,0
2016-11-27T02:04:09.337Z,0
2016-11-27T02:04:48.193Z,0
2016-11-27T02:05:27.016Z,0
2016-11-27T02:06:05.842Z,0
2016-11-27T02:06:44.697Z,0
2016-11-27T02:07:23.528Z,0
2016-11-27T02:08:02.353Z,0
2016-11-27T02:08:41.179Z,0
2016-11-27T02:09:20.007Z,0
2016-11-27T02:09:59.184Z,0
2016-11-27T02:10:38.007Z,0
2016-11-27T02:11:16.829Z,0
2016-11-27T02:11:55.653Z,0
2016-11-27T02:12:34.487Z,0
2016-11-27T02:13:13.309Z,0
2016-11-27T02:13:52.134Z,0
2016-11-27T02:14:30.955Z,0
2016-11-27T02:15:09.782Z,0
2016-11-27T02:15:48.641Z,0
2016-11-27T02:16:27.470Z,0
2016-11-27T02:17:06.295Z,0
2016-11-27T02:17:45.119Z,0
2016-11-27T02:18:24.298Z,0
2016-11-27T02:19:03.119Z,0
2016-11-27T02:19:41.942Z,0
2016-11-27T02:20:20.765Z,0
2016-11-27T02:20:59.592Z,0
2016-11-27T02:21:38.416Z,0
2016-11-27T02:22:17.240Z,0
2016-11-27T02:22:56.061Z,0
2016-11-27T02:23:34.883Z,0
2016-11-27T02:24:13.710Z,0
2016-11-27T02:24:52.533Z,0
2016-11-27T02:25:31.356Z,0
2016-11-27T02:26:10.185Z,0
2016-11-27T02:26:49.009Z,0
2016-11-27T02:27:27.829Z,0
2016-11-27T02:28:06.657Z,0
2016-11-27T02:28:45.482Z,0
2016-11-27T02:29:24.310Z,0
2016-11-27T02:30:03.139Z,0
2016-11-27T02:30:41.961Z,0
2016-11-27T02:31:20.747Z,0
2016-11-27T02:31:59.900Z,0
2016-11-27T02:32:38.677Z,0
2016-11-27T02:33:17.813Z,0
2016-11-27T02:33:56.590Z,0
2016-11-27T02:34:35.715Z,0
2016-11-27T02:35:14.492Z,0
2016-11-27T02:35:53.275Z,0
2016-11-27T02:36:32.051Z,0
2016-11-27T02:37:10.836Z,0
2016-11-27T02:37:49.678Z,0
2016-11-27T02:38:28.454Z,0
2016-11-27T02:39:07.228Z,0
2016-11-27T02:39:46.007Z,0
2016-11-27T02:40:24.783Z,0
2016-11-27T02:41:03.560Z,0
2016-11-27T02:41:42.339Z,0
2016-11-27T02:42:21.115Z,0
2016-11-27T02:42:59.890Z,0
2016-11-27T02:43:38.708Z,0
2016-11-27T02:44:17.487Z,0
2016-11-27T02:44:56.260Z,0
2016-11-27T02:45:35.030Z,0
2016-11-27T02:46:14.159Z,0
2016-11-27T02:46:52.932Z,0
2016-11-27T02:47:31.704Z,0
2016-11-27T02:48:10.474Z,0
2016-11-27T02:48:49.255Z,0
2016-11-27T02:49:28.053Z,0
2016-11-27T02:50:06.833Z,0
2016-11-27T02:50:45.608Z,0
2016-11-27T02:51:24.387Z,0
2016-11-27T02:52:03.162Z,0
2016-11-27T02:52:41.939Z,0
2016-11-27T02:53:20.709Z,0
2016-11-27T02:53:59.490Z,0
2016-11-27T02:54:38.268Z,0
2016-11-27T02:55:17.397Z,0
2016-11-27T02:55:56.168Z,0
2016-11-27T02:56:34.953Z,0
2016-11-27T02:57:13.726Z,0
2016-11-27T02:57:52.496Z,0
2016-11-27T02:58:31.267Z,0
2016-11-27T02:59:10.040Z,0
2016-11-27T02:59:48.815Z,0
2016-11-27T03:00:27.586Z,0
2016-11-27T03:01:06.368Z,0
2016-11-27T03:01:45.147Z,0
2016-11-27T03:02:23.930Z,0
2016-11-27T03:03:02.709Z,0
2016-11-27T03:03:41.483Z,0
2016-11-27T03:04:20.253Z,0
2016-11-27T03:04:59.028Z,0
2016-11-27T03:05:37.803Z,0
2016-11-27T03:06:16.580Z,0
2016-11-27T03:06:55.354Z,0
2016-11-27T03:07:34.129Z,0
2016-11-27T03:08:12.907Z,0
2016-11-27T03:08:51.692Z,0
2016-11-27T03:09:30.476Z,0
2016-11-27T03:10:09.255Z,0
2016-11-27T03:10:48.043Z,0
2016-11-27T03:11:26.821Z,0
2016-11-27T03:12:05.598Z,0
2016-11-27T03:12:44.374Z,0
2016-11-27T03:13:23.146Z,0
2016-11-27T03:14:01.927Z,0
2016-11-27T03:14:40.705Z,0
2016-11-27T03:15:19.488Z,0
2016-11-27T03:15:58.275Z,0
2016-11-27T03:16:37.047Z,0
2016-11-27T03:17:15.822Z,0
2016-11-27T03:17:54.630Z,0
2016-11-27T03:18:33.403Z,0
2016-11-27T03:19:12.180Z,0
2016-11-27T03:19:50.954Z,0
2016-11-27T03:20:29.725Z,0
2016-11-27T03:21:08.497Z,0
2016-11-27T03:21:47.271Z,0
2016-11-27T03:22:26.040Z,0
2016-11-27T03:23:04.816Z,0
2016-11-27T03:23:43.591Z,0
2016-11-27T03:24:22.401Z,0
2016-11-27T03:25:01.175Z,0
2016-11-27T03:25:39.946Z,0
2016-11-27T03:26:18.723Z,0
2016-11-27T03:26:57.493Z,0
2016-11-27T03:27:36.269Z,0
2016-11-27T03:28:15.052Z,0
2016-11-27T03:28:53.825Z,0
2016-11-27T03:29:32.597Z,0
2016-11-27T03:30:11.726Z,0
2016-11-27T03:30:50.503Z,0
2016-11-27T03:31:29.278Z,0
2016-11-27T03:32:08.051Z,0
2016-11-27T03:32:46.822Z,0
2016-11-27T03:33:25.599Z,0
2016-11-27T03:34:04.371Z,0
2016-11-27T03:34:43.146Z,0
2016-11-27T03:35:21.923Z,0
2016-11-27T03:36:00.697Z,0
2016-11-27T03:36:39.474Z,0
2016-11-27T03:37:18.249Z,0
2016-11-27T03:37:57.377Z,0
2016-11-27T03:38:36.152Z,0
2016-11-27T03:39:14.945Z,0
2016-11-27T03:39:53.726Z,0
2016-11-27T03:40:32.502Z,0
2016-11-27T03:41:11.284Z,0
2016-11-27T03:41:50.062Z,0
2016-11-27T03:42:28.840Z,0
2016-11-27T03:43:07.617Z,0
2016-11-27T03:43:46.390Z,0
2016-11-27T03:44:25.162Z,0
2016-11-27T03:45:03.943Z,0
2016-11-27T03:45:43.076Z,0
2016-11-27T03:46:21.853Z,0
2016-11-27T03:47:00.644Z,0
2016-11-27T03:47:39.775Z,0
2016-11-27T03:48:18.551Z,0
2016-11-27T03:48:57.328Z,0
2016-11-27T03:49:36.103Z,0
2016-11-27T03:50:14.899Z,0
2016-11-27T03:50:53.682Z,0
2016-11-27T03:51:32.458Z,0
2016-11-27T03:52:11.241Z,0
2016-11-27T03:52:50.017Z,0
2016-11-27T03:53:28.795Z,0
2016-11-27T03:54:07.607Z,0
2016-11-27T03:54:46.383Z,0
2016-11-27T03:55:25.157Z,0
2016-11-27T03:56:03.944Z,0
2016-11-27T03:56:42.717Z,0
2016-11-27T03:57:21.492Z,0
2016-11-27T03:58:00.297Z,0
2016-11-27T03:58:39.073Z,0
2016-11-27T03:59:17.858Z,0
2016-11-27T03:59:56.636Z,0
2016-11-27T04:00:35.444Z,0
2016-11-27T04:01:14.219Z,0
2016-11-27T04:01:52.997Z,0
2016-11-27T04:02:31.775Z,0
2016-11-27T04:03:10.552Z,0
2016-11-27T04:03:49.334Z,0
2016-11-27T04:04:28.108Z,0
2016-11-27T04:05:06.887Z,0
2016-11-27T04:05:45.667Z,0
2016-11-27T04:06:24.445Z,0
2016-11-27T04:07:03.226Z,0
2016-11-27T04:07:42.005Z,0
2016-11-27T04:08:20.777Z,0
2016-11-27T04:08:59.555Z,0
2016-11-27T04:09:38.332Z,0
2016-11-27T04:10:17.136Z,0
2016-11-27T04:10:55.914Z,0
2016-11-27T04:11:35.043Z,0
2016-11-27T04:12:13.819Z,0
2016-11-27T04:12:52.598Z,0
2016-11-27T04:13:31.378Z,0
2016-11-27T04:14:10.158Z,0
2016-11-27T04:14:48.938Z,0
2016-11-27T04:15:27.714Z,0
2016-11-27T04:16:06.514Z,0
2016-11-27T04:16:45.290Z,0
2016-11-27T04:17:24.062Z,0
2016-11-27T04:18:02.840Z,0
2016-11-27T04:18:41.650Z,0
2016-11-27T04:19:20.424Z,0
2016-11-27T04:19:59.203Z,0
2016-11-27T04:20:37.980Z,0
2016-11-27T04:21:16.787Z,0
2016-11-27T04:21:55.557Z,0
2016-11-27T04:22:34.332Z,0
2016-11-27T04:23:13.120Z,0
2016-11-27T04:23:51.896Z,0
2016-11-27T04:24:30.675Z,0
2016-11-27T04:25:09.457Z,0
2016-11-27T04:25:48.233Z,0
2016-11-27T04:26:27.013Z,0
2016-11-27T04:27:05.787Z,0
2016-11-27T04:27:44.562Z,0
2016-11-27T04:28:23.337Z,0
2016-11-27T04:29:02.475Z,0
2016-11-27T04:29:41.290Z,0
2016-11-27T04:30:20.064Z,0
2016-11-27T04:30:58.835Z,0
2016-11-27T04:31:37.625Z,0
2016-11-27T04:32:16.408Z,0
2016-11-27T04:32:55.206Z,0
2016-11-27T04:33:33.975Z,0
2016-11-27T04:34:12.751Z,0
2016-11-27T04:34:51.538Z,0
2016-11-27T04:35:30.340Z,0
2016-11-27T04:36:09.117Z,0
2016-11-27T04:36:47.892Z,0
2016-11-27T04:37:26.668Z,0
2016-11-27T04:38:05.447Z,0
2016-11-27T04:38:44.571Z,0
2016-11-27T04:39:23.347Z,0
2016-11-27T04:40:02.124Z,0
2016-11-27T04:40:40.901Z,0
2016-11-27T04:41:19.679Z,0
2016-11-27T04:41:58.457Z,0
2016-11-27T04:42:37.230Z,0
2016-11-27T04:43:16.001Z,0
2016-11-27T04:43:55.134Z,0
2016-11-27T04:44:33.914Z,0
2016-11-27T04:45:12.691Z,0
2016-11-27T04:45:51.511Z,0
2016-11-27T04:46:30.287Z,0
2016-11-27T04:47:09.088Z,0
2016-11-27T04:47:47.861Z,0
2016-11-27T04:48:26.630Z,0
2016-11-27T04:49:05.400Z,0
2016-11-27T04:49:44.181Z,0
2016-11-27T04:50:22.954Z,0
2016-11-27T04:51:01.725Z,0
2016-11-27T04:51:40.500Z,0
2016-11-27T04:52:19.272Z,0
2016-11-27T04:52:58.049Z,0
2016-11-27T04:53:36.829Z,0
2016-11-27T04:54:15.607Z,0
2016-11-27T04:54:54.376Z,0
2016-11-27T04:55:33.153Z,0
2016-11-27T04:56:11.927Z,0
2016-11-27T04:56:50.703Z,0
2016-11-27T04:57:29.483Z,0
2016-11-27T04:58:08.270Z,0
2016-11-27T04:58:47.043Z,0
2016-11-27T04:59:25.815Z,0
2016-11-27T05:00:04.620Z,0
2016-11-27T05:00:43.401Z,0
2016-11-27T05:01:22.179Z,0
2016-11-27T05:02:00.952Z,0
2016-11-27T05:02:39.729Z,0
2016-11-27T05:03:18.509Z,0
2016-11-27T05:03:57.283Z,0
2016-11-27T05:04:36.088Z,0
2016-11-27T05:05:14.860Z,0
2016-11-27T05:05:53.633Z,0
2016-11-27T05:06:32.406Z,0
2016-11-27T05:07:11.186Z,0
2016-11-27T05:07:49.953Z,0
2016-11-27T05:08:28.735Z,0
2016-11-27T05:09:07.514Z,0
2016-11-27T05:09:46.290Z,0
2016-11-27T05:10:25.064Z,0
2016-11-27T05:11:03.836Z,0
2016-11-27T05:11:42.616Z,0
2016-11-27T05:12:21.402Z,0
2016-11-27T05:13:00.183Z,0
2016-11-27T05:13:38.985Z,0
2016-11-27T05:14:17.788Z,0
2016-11-27T05:14:56.564Z,0
2016-11-27T05:15:35.689Z,0
2016-11-27T05:16:14.824Z,0
2016-11-27T05:16:53.632Z,0
2016-11-27T05:17:32.404Z,0
2016-11-27T05:18:11.183Z,0
2016-11-27T05:18:49.963Z,0
2016-11-27T05:19:28.731Z,0
2016-11-27T05:20:07.507Z,0
2016-11-27T05:20:46.282Z,0
2016-11-27T05:21:25.053Z,0
2016-11-27T05:22:03.828Z,0
2016-11-27T05:22:42.607Z,0
2016-11-27T05:23:21.433Z,0
2016-11-27T05:24:00.213Z,0
2016-11-27T05:24:38.991Z,0
2016-11-27T05:25:18.123Z,0
2016-11-27T05:25:56.931Z,0
2016-11-27T05:26:35.709Z,0
2016-11-27T05:27:14.485Z,0
2016-11-27T05:27:53.278Z,0
2016-11-27T05:28:32.054Z,0
2016-11-27T05:29:10.831Z,0
2016-11-27T05:29:49.603Z,0
2016-11-27T05:30:28.383Z,0
2016-11-27T05:31:07.169Z,0
2016-11-27T05:31:45.985Z,0
2016-11-27T05:32:24.760Z,0
2016-11-27T05:33:03.539Z,0
2016-11-27T05:33:42.320Z,0
2016-11-27T05:34:21.095Z,0
2016-11-27T05:34:59.867Z,0
2016-11-27T05:35:38.659Z,0
2016-11-27T05:36:17.431Z,0
2016-11-27T05:36:56.204Z,0
2016-11-27T05:37:34.994Z,0
2016-11-27T05:38:13.771Z,0
2016-11-27T05:38:52.547Z,0
2016-11-27T05:39:31.323Z,0
2016-11-27T05:40:10.099Z,0
2016-11-27T05:40:48.876Z,0
2016-11-27T05:41:27.653Z,0
2016-11-27T05:42:06.437Z,0
2016-11-27T05:42:45.213Z,0
2016-11-27T05:43:23.984Z,0
2016-11-27T05:44:02.760Z,0
2016-11-27T05:44:41.541Z,0
2016-11-27T05:45:20.316Z,0
2016-11-27T05:45:59.091Z,0
2016-11-27T05:46:37.864Z,0
2016-11-27T05:47:16.641Z,0
2016-11-27T05:47:55.425Z,0
2016-11-27T05:48:34.201Z,0
2016-11-27T05:49:13.011Z,0
2016-11-27T05:49:51.786Z,0
2016-11-27T05:50:30.562Z,0
2016-11-27T05:51:09.342Z,0
2016-11-27T05:51:48.124Z,0
2016-11-27T05:52:26.898Z,0
2016-11-27T05:53:05.676Z,0
2016-11-27T05:53:44.459Z,0
2016-11-27T05:54:23.229Z,0
2016-11-27T05:55:02.007Z,0
2016-11-27T05:55:40.787Z,0
2016-11-27T05:56:19.569Z,0
2016-11-27T05:56:58.350Z,0
2016-11-27T05:57:37.139Z,0
2016-11-27T05:58:15.919Z,0
2016-11-27T05:58:54.695Z,0
2016-11-27T05:59:33.465Z,0
2016-11-27T06:00:12.246Z,0
2016-11-27T06:00:51.023Z,0
2016-11-27T06:01:29.802Z,0
2016-11-27T06:02:08.575Z,0
2016-11-27T06:02:47.353Z,0
2016-11-27T06:03:26.128Z,0
2016-11-27T06:04:04.905Z,0
2016-11-27T06:04:43.689Z,0
2016-11-27T06:05:22.490Z,0
2016-11-27T06:06:01.265Z,0
2016-11-27T06:06:40.039Z,0
2016-11-27T06:07:18.815Z,0
2016-11-27T06:07:57.597Z,0
2016-11-27T06:08:36.373Z,0
2016-11-27T06:09:15.160Z,0
2016-11-27T06:09:53.936Z,0
2016-11-27T06:10:32.713Z,0
2016-11-27T06:11:11.490Z,0
2016-11-27T06:11:50.267Z,0
2016-11-27T06:12:29.048Z,0
2016-11-27T06:13:07.828Z,0
2016-11-27T06:13:47.077Z,0
2016-11-27T06:14:25.852Z,0
2016-11-27T06:15:04.636Z,0
2016-11-27T06:15:43.412Z,0
2016-11-27T06:16:22.183Z,0
2016-11-27T06:17:00.958Z,0
2016-11-27T06:17:39.738Z,0
2016-11-27T06:18:18.512Z,0
2016-11-27T06:18:57.283Z,0
2016-11-27T06:19:36.060Z,0
2016-11-27T06:20:14.837Z,0
2016-11-27T06:20:53.613Z,0
2016-11-27T06:21:32.390Z,0
2016-11-27T06:22:11.166Z,0
2016-11-27T06:22:49.940Z,0
2016-11-27T06:23:28.715Z,0
2016-11-27T06:24:07.487Z,0
2016-11-27T06:24:46.263Z,0
2016-11-27T06:25:25.035Z,0
2016-11-27T06:26:03.813Z,0
2016-11-27T06:26:42.598Z,0
2016-11-27T06:27:21.373Z,0
2016-11-27T06:28:00.152Z,0
2016-11-27T06:28:38.927Z,0
2016-11-27T06:29:17.700Z,0
2016-11-27T06:29:56.479Z,0
2016-11-27T06:30:35.251Z,0
2016-11-27T06:31:14.031Z,0
2016-11-27T06:31:52.801Z,0
2016-11-27T06:32:31.580Z,0
2016-11-27T06:33:10.357Z,0
2016-11-27T06:33:49.132Z,0
2016-11-27T06:34:27.908Z,0
2016-11-27T06:35:07.038Z,0
2016-11-27T06:35:45.848Z,0
2016-11-27T06:36:24.626Z,0
2016-11-27T06:37:03.418Z,0
2016-11-27T06:37:42.195Z,0
2016-11-27T06:38:20.992Z,0
2016-11-27T06:38:59.769Z,0
2016-11-27T06:39:38.578Z,0
2016-11-27T06:40:17.354Z,0
2016-11-27T06:40:56.160Z,0
2016-11-27T06:41:34.936Z,0
2016-11-27T06:42:13.709Z,0
2016-11-27T06:42:52.492Z,0
2016-11-27T06:43:31.293Z,0
2016-11-27T06:44:10.063Z,0
2016-11-27T06:44:48.835Z,0
2016-11-27T06:45:27.608Z,0
2016-11-27T06:46:06.427Z,0
2016-11-27T06:46:45.204Z,0
2016-11-27T06:47:23.977Z,0
2016-11-27T06:48:02.747Z,0
2016-11-27T06:48:41.525Z,0
2016-11-27T06:49:20.300Z,0
2016-11-27T06:49:59.077Z,0
2016-11-27T06:50:37.888Z,0
2016-11-27T06:51:16.664Z,0
2016-11-27T06:51:55.441Z,0
2016-11-27T06:52:34.218Z,0
2016-11-27T06:53:12.996Z,0
2016-11-27T06:53:51.773Z,0
2016-11-27T06:54:30.551Z,0
2016-11-27T06:55:09.681Z,0
2016-11-27T06:55:48.459Z,0
2016-11-27T06:56:27.231Z,0
2016-11-27T06:57:06.006Z,0
2016-11-27T06:57:44.785Z,0
2016-11-27T06:58:23.580Z,0
2016-11-27T06:59:02.358Z,0
2016-11-27T06:59:41.133Z,0
2016-11-27T07:00:20.299Z,0
2016-11-27T07:00:59.074Z,0
2016-11-27T07:01:37.849Z,0
2016-11-27T07:02:16.629Z,0
2016-11-27T07:02:55.408Z,0
2016-11-27T07:03:34.186Z,0
2016-11-27T07:04:12.963Z,0
2016-11-27T07:04:51.744Z,0
2016-11-27T07:05:30.519Z,0
2016-11-27T07:06:09.298Z,0
2016-11-27T07:06:48.429Z,0
2016-11-27T07:07:27.203Z,0
2016-11-27T07:08:05.982Z,0
2016-11-27T07:08:44.763Z,0
2016-11-27T07:09:23.539Z,0
2016-11-27T07:10:02.320Z,0
2016-11-27T07:10:41.108Z,0
2016-11-27T07:11:19.883Z,0
2016-11-27T07:11:58.657Z,0
2016-11-27T07:12:37.440Z,0
2016-11-27T07:13:16.257Z,0
2016-11-27T07:13:55.041Z,0
2016-11-27T07:14:33.821Z,5
2016-11-27T07:15:12.602Z,5
2016-11-27T07:15:51.384Z,5
2016-11-27T07:16:30.162Z,5
2016-11-27T07:17:08.942Z,5
2016-11-27T07:17:47.720Z,10
2016-11-27T07:18:26.501Z,10
2016-11-27T07:19:05.280Z,10
2016-11-27T07:19:44.058Z,10
2016-11-27T07:20:22.836Z,15
2016-11-27T07:21:01.612Z,15
2016-11-27T07:21:40.387Z,15
2016-11-27T07:22:19.170Z,15
2016-11-27T07:22:57.989Z,15
2016-11-27T07:23:36.795Z,15
2016-11-27T07:24:15.573Z,15
2016-11-27T07:24:54.350Z,15
2016-11-27T07:25:33.127Z,15
2016-11-27T07:26:11.912Z,15
2016-11-27T07:26:50.686Z,15
2016-11-27T07:27:29.464Z,15
2016-11-27T07:28:08.243Z,15
2016-11-27T07:28:47.049Z,15
2016-11-27T07:29:25.824Z,15
2016-11-27T07:30:04.603Z,15
2016-11-27T07:30:43.417Z,15
2016-11-27T07:31:22.222Z,15
2016-11-27T07:32:00.999Z,10
2016-11-27T07:32:39.778Z,10
2016-11-27T07:33:18.554Z,10
2016-11-27T07:33:57.336Z,10
2016-11-27T07:34:36.113Z,10
2016-11-27T07:35:14.894Z,10
2016-11-27T07:35:53.679Z,10
2016-11-27T07:36:32.458Z,10
2016-11-27T07:37:11.233Z,10
2016-11-27T07:37:50.010Z,10
2016-11-27T07:38:28.791Z,10
2016-11-27T07:39:07.592Z,10
2016-11-27T07:39:46.371Z,10
2016-11-27T07:40:25.533Z,10
2016-11-27T07:41:04.318Z,10
2016-11-27T07:41:43.097Z,10
2016-11-27T07:42:21.871Z,10
2016-11-27T07:43:00.650Z,10
2016-11-27T07:43:39.427Z,15
2016-11-27T07:44:18.201Z,15
2016-11-27T07:44:56.975Z,15
2016-11-27T07:45:35.754Z,15
2016-11-27T07:46:14.533Z,20
2016-11-27T07:46:53.309Z,20
2016-11-27T07:47:32.440Z,25
2016-11-27T07:48:11.217Z,25
2016-11-27T07:48:49.992Z,30
2016-11-27T07:49:28.766Z,30
2016-11-27T07:50:07.540Z,30
2016-11-27T07:50:46.317Z,35
2016-11-27T07:51:25.093Z,35
2016-11-27T07:52:03.870Z,35
2016-11-27T07:52:42.649Z,35
2016-11-27T07:53:21.425Z,40
2016-11-27T07:54:00.200Z,40
2016-11-27T07:54:38.978Z,35
2016-11-27T07:55:18.111Z,35
2016-11-27T07:55:56.891Z,35
2016-11-27T07:56:35.670Z,35
2016-11-27T07:57:14.452Z,40
2016-11-27T07:57:53.231Z,40
2016-11-27T07:58:32.011Z,45
2016-11-27T07:59:10.791Z,45
2016-11-27T07:59:49.568Z,45
2016-11-27T08:00:28.344Z,50
2016-11-27T08:01:07.127Z,55
2016-11-27T08:01:45.943Z,55
2016-11-27T08:02:24.719Z,60
2016-11-27T08:03:03.527Z,60
2016-11-27T08:03:42.306Z,65
2016-11-27T08:04:21.082Z,60
2016-11-27T08:04:59.863Z,65
2016-11-27T08:05:38.640Z,65
2016-11-27T08:06:17.437Z,70
2016-11-27T08:06:56.216Z,70
2016-11-27T08:07:34.997Z,75
2016-11-27T08:08:13.775Z,80
2016-11-27T08:08:52.556Z,80
2016-11-27T08:09:31.339Z,80
2016-11-27T08:10:10.119Z,80
2016-11-27T08:10:48.900Z,85
2016-11-27T08:11:27.672Z,85
2016-11-27T08:12:06.450Z,90
2016-11-27T08:12:45.229Z,95
2016-11-27T08:13:24.000Z,105
2016-11-27T08:14:03.160Z,130
2016-11-27T08:14:41.935Z,155
2016-11-27T08:15:20.705Z,255
2016-11-27T08:15:59.480Z,280
2016-11-27T08:16:38.257Z,275
2016-11-27T08:17:17.035Z,270
2016-11-27T08:17:55.807Z,260
2016-11-27T08:18:34.589Z,245
2016-11-27T08:19:13.368Z,260
2016-11-27T08:19:52.142Z,250
2016-11-27T08:20:30.921Z,200
2016-11-27T08:21:09.695Z,205
2016-11-27T08:21:48.475Z,190
2016-11-27T08:22:27.601Z,155
2016-11-27T08:23:06.385Z,135
2016-11-27T08:23:45.161Z,135
2016-11-27T08:24:23.939Z,135
2016-11-27T08:25:02.717Z,135
2016-11-27T08:25:41.492Z,135
2016-11-27T08:26:20.630Z,135
2016-11-27T08:26:59.403Z,135
2016-11-27T08:27:38.186Z,140
2016-11-27T08:28:16.955Z,140
2016-11-27T08:28:55.730Z,140
2016-11-27T08:29:34.508Z,130
2016-11-27T08:30:13.284Z,125
2016-11-27T08:30:52.063Z,120
2016-11-27T08:31:30.873Z,120
2016-11-27T08:32:09.649Z,115
2016-11-27T08:32:48.424Z,115
2016-11-27T08:33:27.200Z,115
2016-11-27T08:34:05.979Z,115
2016-11-27T08:34:44.754Z,120
2016-11-27T08:35:23.540Z,125
2016-11-27T08:36:02.317Z,135
2016-11-27T08:36:41.448Z,145
2016-11-27T08:37:20.228Z,155
2016-11-27T08:37:59.010Z,175
2016-11-27T08:38:37.780Z,215
2016-11-27T08:39:16.907Z,245
2016-11-27T08:39:55.680Z,205
2016-11-27T08:40:34.456Z,190
2016-11-27T08:41:13.241Z,180
2016-11-27T08:41:52.044Z,180
2016-11-27T08:42:30.818Z,165
2016-11-27T08:43:09.597Z,150
2016-11-27T08:43:48.383Z,135
2016-11-27T08:44:27.157Z,125
2016-11-27T08:45:05.947Z,140
2016-11-27T08:45:44.722Z,175
2016-11-27T08:46:23.497Z,265
2016-11-27T08:47:02.277Z,345
2016-11-27T08:47:41.059Z,380
2016-11-27T08:48:19.834Z,300
2016-11-27T08:48:58.610Z,190
2016-11-27T08:49:37.388Z,165
2016-11-27T08:50:16.164Z,195
2016-11-27T08:50:54.938Z,185
2016-11-27T08:51:33.714Z,195
2016-11-27T08:52:12.491Z,220
2016-11-27T08:52:51.268Z,385
2016-11-27T08:53:30.043Z,385
2016-11-27T08:54:08.823Z,410
2016-11-27T08:54:47.603Z,375
2016-11-27T08:55:26.408Z,295
2016-11-27T08:56:05.177Z,490
2016-11-27T08:56:43.963Z,390
2016-11-27T08:57:22.738Z,245
2016-11-27T08:58:01.516Z,265
2016-11-27T08:58:40.293Z,455
2016-11-27T08:59:19.071Z,375
2016-11-27T08:59:57.852Z,250
2016-11-27T09:00:36.632Z,300
2016-11-27T09:01:15.414Z,325
2016-11-27T09:01:54.193Z,235
2016-11-27T09:02:32.974Z,185
2016-11-27T09:03:11.751Z,155
2016-11-27T09:03:50.533Z,150
2016-11-27T09:04:29.345Z,155
2016-11-27T09:05:08.117Z,140
2016-11-27T09:05:46.894Z,135
2016-11-27T09:06:25.671Z,135
2016-11-27T09:07:04.445Z,145
2016-11-27T09:07:43.264Z,155
2016-11-27T09:08:22.044Z,160
2016-11-27T09:09:00.813Z,160
2016-11-27T09:09:39.593Z,155
2016-11-27T09:10:18.370Z,150
2016-11-27T09:10:57.149Z,145
2016-11-27T09:11:35.926Z,150
2016-11-27T09:12:14.707Z,145
2016-11-27T09:12:53.840Z,150
2016-11-27T09:13:32.620Z,160
2016-11-27T09:14:11.402Z,170
2016-11-27T09:14:50.178Z,175
2016-11-27T09:15:28.953Z,185
2016-11-27T09:16:07.730Z,195
2016-11-27T09:16:46.510Z,205
2016-11-27T09:17:25.290Z,205
2016-11-27T09:18:04.071Z,200
2016-11-27T09:18:42.853Z,190
2016-11-27T09:19:21.628Z,180
2016-11-27T09:20:00.407Z,170
2016-11-27T09:20:39.185Z,170
2016-11-27T09:21:17.967Z,165
2016-11-27T09:21:56.745Z,165
2016-11-27T09:22:35.528Z,165
2016-11-27T09:23:14.307Z,155
2016-11-27T09:23:53.095Z,145
2016-11-27T09:24:31.869Z,135
2016-11-27T09:25:10.649Z,130
2016-11-27T09:25:49.459Z,135
2016-11-27T09:26:28.234Z,130